Flight Track Log - Related Links

Times and Time Zones

All times are in EDT time to prevent confusion due to time zone crossing. See the THY810 flight status page for this flight to view local times or setup timezone preferences in your user account.

Time Position Orientation Groundspeed Altitude Reporting Facility
EDT Latitude Longitude Course Direction KTS MPH feet Rate Location/Type
05:07PM 40.2425 29.3834 150° Southeast  Level Estimated
05:08PM 40.1506 29.4528 150° Southeast  Level Estimated
05:09PM 40.0585 29.5221 150° Southeast  Level Estimated
05:10PM 39.9665 29.5911 150° Southeast  Level Estimated
05:11PM 39.8744 29.6600 150° Southeast  Level Estimated
05:12PM 39.7822 29.7286 150° Southeast  Level Estimated
05:13PM 39.6900 29.7971 150° Southeast  Level Estimated
05:14PM 39.5978 29.8654 150° Southeast  Level Estimated
05:15PM 39.5055 29.9336 150° Southeast  Level Estimated
05:16PM 39.4132 30.0015 150° Southeast  Level Estimated
05:17PM 39.3209 30.0693 150° Southeast  Level Estimated
05:18PM 39.2285 30.1369 150° Southeast  Level Estimated
05:19PM 39.1361 30.2043 150° Southeast  Level Estimated
05:20PM 39.0436 30.2715 151° Southeast  Level Estimated
05:21PM 38.9511 30.3386 151° Southeast  Level Estimated
05:22PM 38.8586 30.4055 151° Southeast  Level Estimated
05:23PM 38.7660 30.4722 151° Southeast  Level Estimated
05:24PM 38.6734 30.5387 151° Southeast  Level Estimated
05:25PM 38.5807 30.6051 151° Southeast  Level Estimated
05:26PM 38.4880 30.6713 151° Southeast  Level Estimated
05:27PM 38.3953 30.7373 151° Southeast  Level Estimated
05:28PM 38.3025 30.8032 151° Southeast  Level Estimated
05:29PM 38.2097 30.8689 151° Southeast  Level Estimated
05:30PM 38.1169 30.9344 151° Southeast  Level Estimated
05:31PM 38.0240 30.9998 151° Southeast  Level Estimated
05:32PM 37.9311 31.0649 151° Southeast  Level Estimated
05:33PM 37.8382 31.1300 151° Southeast  Level Estimated
05:34PM 37.7452 31.1948 151° Southeast  Level Estimated
05:35PM 37.6522 31.2595 151° Southeast  Level Estimated
05:36PM 37.5591 31.3241 151° Southeast  Level Estimated
05:37PM 37.4660 31.3884 151° Southeast  Level Estimated
05:38PM 37.3729 31.4527 151° Southeast  Level Estimated
05:39PM 37.2798 31.5167 151° Southeast  Level Estimated
05:40PM 37.1866 31.5806 151° Southeast  Level Estimated
05:41PM 37.0933 31.6443 151° Southeast  Level Estimated
05:42PM 37.0001 31.7079 151° Southeast  Level Estimated
05:43PM 36.9068 31.7714 151° Southeast  Level Estimated
05:44PM 36.8135 31.8346 152° Southeast  Level Estimated
05:45PM 36.7201 31.8977 152° Southeast  Level Estimated
05:46PM 36.6267 31.9607 152° Southeast  Level Estimated
05:47PM 36.5333 32.0235 152° Southeast  Level Estimated
05:48PM 36.4398 32.0862 152° Southeast  Level Estimated
05:49PM 36.3463 32.1487 152° Southeast  Level Estimated
05:50PM 36.2528 32.2110 152° Southeast  Level Estimated
05:51PM 36.1592 32.2733 152° Southeast  Level Estimated
05:52PM 36.0657 32.3353 152° Southeast  Level Estimated
05:53PM 35.9720 32.3972 152° Southeast  Level Estimated
05:54PM 35.8784 32.4590 152° Southeast  Level Estimated
05:55PM 35.7847 32.5206 152° Southeast  Level Estimated
05:56PM 35.6910 32.5821 152° Southeast  Level Estimated
05:57PM 35.5972 32.6434 152° Southeast  Level Estimated
05:58PM 35.5034 32.7046 152° Southeast  Level Estimated
05:59PM 35.4096 32.7657 152° Southeast  Level Estimated
06:00PM 35.3158 32.8266 152° Southeast  Level Estimated
06:01PM 35.2219 32.8873 152° Southeast  Level Estimated
06:02PM 35.1280 32.9480 152° Southeast  Level Estimated
06:03PM 35.0341 33.0085 152° Southeast  Level Estimated
06:04PM 34.9401 33.0688 152° Southeast  Level Estimated
06:05PM 34.8461 33.1290 152° Southeast  Level Estimated
06:06PM 34.7521 33.1891 152° Southeast  Level Estimated
06:07PM 34.6581 33.2490 152° Southeast  Level Estimated
06:08PM 34.5640 33.3088 152° Southeast  Level Estimated
06:09PM 34.4699 33.3685 152° Southeast  Level Estimated
06:10PM 34.3758 33.4280 152° Southeast  Level Estimated
06:11PM 34.2816 33.4874 152° Southeast  Level Estimated
06:12PM 34.1874 33.5466 153° Southeast  Level Estimated
06:13PM 34.0932 33.6058 153° Southeast  Level Estimated
06:14PM 33.9989 33.6648 153° Southeast  Level Estimated
06:15PM 33.9047 33.7236 153° Southeast  Level Estimated
06:16PM 33.8103 33.7824 153° Southeast  Level Estimated
06:17PM 33.7160 33.8410 153° Southeast  Level Estimated
06:18PM 33.6216 33.8995 153° Southeast  Level Estimated
06:19PM 33.5272 33.9578 153° Southeast  Level Estimated
06:20PM 33.4328 34.0160 153° Southeast  Level Estimated
06:21PM 33.3384 34.0741 153° Southeast  Level Estimated
06:22PM 33.2439 34.1321 153° Southeast  Level Estimated
06:23PM 33.1494 34.1899 153° Southeast  Level Estimated
06:24PM 33.0549 34.2477 153° Southeast  Level Estimated
06:25PM 32.9604 34.3053 153° Southeast  Level Estimated
06:26PM 32.8658 34.3627 153° Southeast  Level Estimated
06:27PM 32.7712 34.4201 153° Southeast  Level Estimated
06:28PM 32.6765 34.4773 153° Southeast  Level Estimated
06:29PM 32.5819 34.5344 153° Southeast  Level Estimated
06:30PM 32.4872 34.5914 153° Southeast  Level Estimated
06:31PM 32.3925 34.6483 153° Southeast  Level Estimated
06:32PM 32.2978 34.7050 153° Southeast  Level Estimated
06:33PM 32.2030 34.7617 153° Southeast  Level Estimated
06:34PM 32.1082 34.8182 153° Southeast  Level Estimated
06:35PM 32.0134 34.8746 153° Southeast  Level Estimated
06:36PM 32.0095 34.8769 153° Southeast  Level Estimated
06:37PM 32.0095 34.8769 North  Level Estimated
06:38PM 32.0095 34.8769 North  Level Estimated
06:39PM 32.0095 34.8769 North  Level Estimated
06:40PM 32.0095 34.8769 North  Level Estimated
06:41PM 32.0095 34.8769 North  Level Estimated
06:42PM 32.0095 34.8769 North  Level Estimated
06:43PM 32.0095 34.8769 North  Level Estimated
06:44PM 32.0095 34.8769 North  Level Estimated
06:45PM 32.0095 34.8769 North  Level Estimated
06:46PM 32.0095 34.8769 North  Level Estimated
06:47PM 32.0095 34.8769 North  Level Estimated
06:48PM 32.0095 34.8769 North  Level Estimated
06:49PM 32.0095 34.8769 North  Level Estimated
06:50PM 32.0095 34.8769 North  Level Estimated
06:51PM 32.0095 34.8769 North  Level Estimated

Login

Don't have an account? Register now (free) for customized features, flight alerts, and more!